sensor_id;sensor_type;location;lat;lon;timestamp;P1;durP1;ratioP1;P2;durP2;ratioP2
2486;SDS011;1254;49.144;8.212;2023-06-04T00:00:24;4.80;;;4.33;;
2486;SDS011;1254;49.144;8.212;2023-06-04T00:02:52;3.50;;;3.20;;
2486;SDS011;1254;49.144;8.212;2023-06-04T00:05:21;5.83;;;3.23;;
2486;SDS011;1254;49.144;8.212;2023-06-04T00:07:53;3.20;;;3.00;;
2486;SDS011;1254;49.144;8.212;2023-06-04T00:10:21;3.67;;;3.37;;
2486;SDS011;1254;49.144;8.212;2023-06-04T00:12:49;3.53;;;3.23;;
2486;SDS011;1254;49.144;8.212;2023-06-04T00:15:18;3.50;;;3.20;;
2486;SDS011;1254;49.144;8.212;2023-06-04T00:17:46;3.17;;;2.87;;
2486;SDS011;1254;49.144;8.212;2023-06-04T00:20:17;3.50;;;3.23;;
2486;SDS011;1254;49.144;8.212;2023-06-04T00:22:46;8.43;;;3.10;;
2486;SDS011;1254;49.144;8.212;2023-06-04T00:25:15;3.20;;;2.83;;
2486;SDS011;1254;49.144;8.212;2023-06-04T00:27:44;3.87;;;3.50;;
2486;SDS011;1254;49.144;8.212;2023-06-04T00:30:13;2.90;;;2.67;;
2486;SDS011;1254;49.144;8.212;2023-06-04T00:32:41;3.17;;;2.97;;
2486;SDS011;1254;49.144;8.212;2023-06-04T00:35:09;2.90;;;2.77;;
2486;SDS011;1254;49.144;8.212;2023-06-04T00:37:38;10.50;;;3.40;;
2486;SDS011;1254;49.144;8.212;2023-06-04T00:40:06;3.23;;;2.90;;
2486;SDS011;1254;49.144;8.212;2023-06-04T00:42:36;6.03;;;2.73;;
2486;SDS011;1254;49.144;8.212;2023-06-04T00:45:05;2.90;;;2.70;;
2486;SDS011;1254;49.144;8.212;2023-06-04T00:47:36;3.50;;;3.20;;
2486;SDS011;1254;49.144;8.212;2023-06-04T00:50:04;4.83;;;3.60;;
2486;SDS011;1254;49.144;8.212;2023-06-04T00:52:34;3.20;;;3.00;;
2486;SDS011;1254;49.144;8.212;2023-06-04T00:55:02;3.00;;;2.90;;
2486;SDS011;1254;49.144;8.212;2023-06-04T00:57:30;3.60;;;3.40;;
2486;SDS011;1254;49.144;8.212;2023-06-04T01:00:00;4.67;;;3.23;;
2486;SDS011;1254;49.144;8.212;2023-06-04T01:02:34;4.33;;;3.30;;
2486;SDS011;1254;49.144;8.212;2023-06-04T01:05:04;3.93;;;3.40;;
2486;SDS011;1254;49.144;8.212;2023-06-04T01:07:36;4.30;;;3.30;;
2486;SDS011;1254;49.144;8.212;2023-06-04T01:10:06;6.00;;;3.30;;
2486;SDS011;1254;49.144;8.212;2023-06-04T01:12:34;4.73;;;3.30;;
2486;SDS011;1254;49.144;8.212;2023-06-04T01:15:04;3.80;;;3.50;;
2486;SDS011;1254;49.144;8.212;2023-06-04T01:17:34;4.70;;;3.40;;
2486;SDS011;1254;49.144;8.212;2023-06-04T01:20:07;3.47;;;3.27;;
2486;SDS011;1254;49.144;8.212;2023-06-04T01:22:38;2.97;;;2.70;;
2486;SDS011;1254;49.144;8.212;2023-06-04T01:25:09;3.60;;;3.37;;
2486;SDS011;1254;49.144;8.212;2023-06-04T01:27:46;4.83;;;3.13;;
2486;SDS011;1254;49.144;8.212;2023-06-04T01:30:17;2.97;;;2.87;;
2486;SDS011;1254;49.144;8.212;2023-06-04T01:32:50;10.03;;;3.10;;
2486;SDS011;1254;49.144;8.212;2023-06-04T01:35:25;3.40;;;3.23;;
2486;SDS011;1254;49.144;8.212;2023-06-04T01:37:53;4.80;;;3.60;;
2486;SDS011;1254;49.144;8.212;2023-06-04T01:40:22;3.03;;;2.93;;
2486;SDS011;1254;49.144;8.212;2023-06-04T01:42:52;3.43;;;3.10;;
2486;SDS011;1254;49.144;8.212;2023-06-04T01:45:22;6.57;;;2.97;;
2486;SDS011;1254;49.144;8.212;2023-06-04T01:47:50;4.70;;;3.20;;
2486;SDS011;1254;49.144;8.212;2023-06-04T01:50:18;2.93;;;2.73;;
2486;SDS011;1254;49.144;8.212;2023-06-04T01:52:47;3.30;;;3.13;;
2486;SDS011;1254;49.144;8.212;2023-06-04T01:55:16;3.43;;;3.23;;
2486;SDS011;1254;49.144;8.212;2023-06-04T01:57:45;3.17;;;2.87;;
2486;SDS011;1254;49.144;8.212;2023-06-04T02:00:13;4.47;;;3.20;;
2486;SDS011;1254;49.144;8.212;2023-06-04T02:02:44;3.03;;;2.87;;
2486;SDS011;1254;49.144;8.212;2023-06-04T02:05:14;7.23;;;2.90;;
2486;SDS011;1254;49.144;8.212;2023-06-04T02:07:44;2.83;;;2.63;;
2486;SDS011;1254;49.144;8.212;2023-06-04T02:10:14;3.20;;;2.97;;
2486;SDS011;1254;49.144;8.212;2023-06-04T02:12:52;7.73;;;3.20;;
2486;SDS011;1254;49.144;8.212;2023-06-04T02:15:22;3.00;;;2.80;;
2486;SDS011;1254;49.144;8.212;2023-06-04T02:17:54;2.97;;;2.70;;
2486;SDS011;1254;49.144;8.212;2023-06-04T02:20:24;5.03;;;2.80;;
2486;SDS011;1254;49.144;8.212;2023-06-04T02:22:53;2.83;;;2.67;;
2486;SDS011;1254;49.144;8.212;2023-06-04T02:25:22;2.80;;;2.60;;
2486;SDS011;1254;49.144;8.212;2023-06-04T02:27:50;3.00;;;2.70;;
2486;SDS011;1254;49.144;8.212;2023-06-04T02:30:18;3.20;;;2.43;;
2486;SDS011;1254;49.144;8.212;2023-06-04T02:32:47;4.37;;;3.00;;
2486;SDS011;1254;49.144;8.212;2023-06-04T02:35:18;3.07;;;2.63;;
2486;SDS011;1254;49.144;8.212;2023-06-04T02:37:47;5.50;;;2.73;;
2486;SDS011;1254;49.144;8.212;2023-06-04T02:40:15;2.80;;;2.70;;
2486;SDS011;1254;49.144;8.212;2023-06-04T02:42:44;3.80;;;3.47;;
2486;SDS011;1254;49.144;8.212;2023-06-04T02:45:12;3.00;;;2.80;;
2486;SDS011;1254;49.144;8.212;2023-06-04T02:47:40;6.28;;;2.80;;
2486;SDS011;1254;49.144;8.212;2023-06-04T02:50:09;4.03;;;3.00;;
2486;SDS011;1254;49.144;8.212;2023-06-04T02:52:38;2.57;;;2.47;;
2486;SDS011;1254;49.144;8.212;2023-06-04T02:55:07;2.97;;;2.77;;
2486;SDS011;1254;49.144;8.212;2023-06-04T02:57:39;3.47;;;2.40;;
2486;SDS011;1254;49.144;8.212;2023-06-04T03:00:08;3.23;;;2.57;;
2486;SDS011;1254;49.144;8.212;2023-06-04T03:02:39;5.27;;;3.10;;
2486;SDS011;1254;49.144;8.212;2023-06-04T03:05:09;9.23;;;3.07;;
2486;SDS011;1254;49.144;8.212;2023-06-04T03:07:41;3.00;;;2.70;;
2486;SDS011;1254;49.144;8.212;2023-06-04T03:10:11;2.43;;;2.23;;
2486;SDS011;1254;49.144;8.212;2023-06-04T03:12:40;4.60;;;2.90;;
2486;SDS011;1254;49.144;8.212;2023-06-04T03:15:08;3.50;;;2.43;;
2486;SDS011;1254;49.144;8.212;2023-06-04T03:17:36;6.87;;;2.73;;
2486;SDS011;1254;49.144;8.212;2023-06-04T03:20:05;5.45;;;2.75;;
2486;SDS011;1254;49.144;8.212;2023-06-04T03:22:35;3.07;;;2.80;;
2486;SDS011;1254;49.144;8.212;2023-06-04T03:25:05;3.30;;;3.10;;
2486;SDS011;1254;49.144;8.212;2023-06-04T03:27:34;2.93;;;2.80;;
2486;SDS011;1254;49.144;8.212;2023-06-04T03:30:04;2.85;;;2.75;;
2486;SDS011;1254;49.144;8.212;2023-06-04T03:32:43;3.30;;;2.60;;
2486;SDS011;1254;49.144;8.212;2023-06-04T03:35:13;3.67;;;3.37;;
2486;SDS011;1254;49.144;8.212;2023-06-04T03:37:41;6.00;;;3.10;;
2486;SDS011;1254;49.144;8.212;2023-06-04T03:40:11;3.72;;;3.40;;
2486;SDS011;1254;49.144;8.212;2023-06-04T03:42:42;2.78;;;2.47;;
2486;SDS011;1254;49.144;8.212;2023-06-04T03:45:10;2.90;;;2.70;;
2486;SDS011;1254;49.144;8.212;2023-06-04T03:47:38;5.53;;;2.83;;
2486;SDS011;1254;49.144;8.212;2023-06-04T03:50:08;3.38;;;3.17;;
2486;SDS011;1254;49.144;8.212;2023-06-04T03:52:37;3.43;;;3.07;;
2486;SDS011;1254;49.144;8.212;2023-06-04T03:55:06;2.97;;;2.73;;
2486;SDS011;1254;49.144;8.212;2023-06-04T03:57:37;6.00;;;2.70;;
2486;SDS011;1254;49.144;8.212;2023-06-04T04:00:06;7.68;;;3.03;;
2486;SDS011;1254;49.144;8.212;2023-06-04T04:02:41;3.22;;;3.03;;
2486;SDS011;1254;49.144;8.212;2023-06-04T04:05:18;3.38;;;3.05;;
2486;SDS011;1254;49.144;8.212;2023-06-04T04:07:48;2.65;;;2.55;;
2486;SDS011;1254;49.144;8.212;2023-06-04T04:10:20;2.90;;;2.70;;
2486;SDS011;1254;49.144;8.212;2023-06-04T04:12:50;3.20;;;3.00;;
2486;SDS011;1254;49.144;8.212;2023-06-04T04:15:21;5.77;;;2.77;;
2486;SDS011;1254;49.144;8.212;2023-06-04T04:17:51;3.00;;;2.90;;
2486;SDS011;1254;49.144;8.212;2023-06-04T04:20:19;3.23;;;2.93;;
2486;SDS011;1254;49.144;8.212;2023-06-04T04:22:53;5.30;;;3.15;;
2486;SDS011;1254;49.144;8.212;2023-06-04T04:25:21;3.20;;;3.10;;
2486;SDS011;1254;49.144;8.212;2023-06-04T04:27:51;8.10;;;2.88;;
2486;SDS011;1254;49.144;8.212;2023-06-04T04:30:23;5.50;;;2.70;;
2486;SDS011;1254;49.144;8.212;2023-06-04T04:32:52;2.63;;;2.40;;
2486;SDS011;1254;49.144;8.212;2023-06-04T04:35:27;2.70;;;2.50;;
2486;SDS011;1254;49.144;8.212;2023-06-04T04:37:58;3.90;;;2.90;;
2486;SDS011;1254;49.144;8.212;2023-06-04T04:40:30;4.33;;;3.00;;
2486;SDS011;1254;49.144;8.212;2023-06-04T04:43:01;2.95;;;2.53;;
2486;SDS011;1254;49.144;8.212;2023-06-04T04:45:30;3.50;;;3.17;;
2486;SDS011;1254;49.144;8.212;2023-06-04T04:48:00;4.20;;;3.17;;
2486;SDS011;1254;49.144;8.212;2023-06-04T04:50:29;3.73;;;3.07;;
2486;SDS011;1254;49.144;8.212;2023-06-04T04:52:58;5.80;;;3.23;;
2486;SDS011;1254;49.144;8.212;2023-06-04T04:55:28;3.20;;;2.97;;
2486;SDS011;1254;49.144;8.212;2023-06-04T04:57:56;3.20;;;2.90;;
2486;SDS011;1254;49.144;8.212;2023-06-04T05:00:26;3.70;;;3.40;;
2486;SDS011;1254;49.144;8.212;2023-06-04T05:02:56;5.37;;;3.87;;
2486;SDS011;1254;49.144;8.212;2023-06-04T05:05:24;8.33;;;3.57;;
2486;SDS011;1254;49.144;8.212;2023-06-04T05:07:52;2.70;;;2.50;;
2486;SDS011;1254;49.144;8.212;2023-06-04T05:10:26;3.20;;;3.00;;
2486;SDS011;1254;49.144;8.212;2023-06-04T05:12:54;3.10;;;2.70;;
2486;SDS011;1254;49.144;8.212;2023-06-04T05:15:27;2.70;;;2.60;;
2486;SDS011;1254;49.144;8.212;2023-06-04T05:17:57;8.30;;;2.57;;
2486;SDS011;1254;49.144;8.212;2023-06-04T05:20:31;3.10;;;2.90;;
2486;SDS011;1254;49.144;8.212;2023-06-04T05:23:01;4.93;;;3.00;;
2486;SDS011;1254;49.144;8.212;2023-06-04T05:25:30;3.00;;;2.80;;
2486;SDS011;1254;49.144;8.212;2023-06-04T05:28:01;6.93;;;2.90;;
2486;SDS011;1254;49.144;8.212;2023-06-04T05:30:30;4.83;;;2.93;;
2486;SDS011;1254;49.144;8.212;2023-06-04T05:33:00;5.87;;;5.27;;
2486;SDS011;1254;49.144;8.212;2023-06-04T05:35:29;3.10;;;2.90;;
2486;SDS011;1254;49.144;8.212;2023-06-04T05:37:59;3.03;;;2.93;;
2486;SDS011;1254;49.144;8.212;2023-06-04T05:40:28;5.27;;;3.20;;
2486;SDS011;1254;49.144;8.212;2023-06-04T05:42:57;8.10;;;3.13;;
2486;SDS011;1254;49.144;8.212;2023-06-04T05:45:25;3.20;;;3.00;;
2486;SDS011;1254;49.144;8.212;2023-06-04T05:47:55;3.33;;;3.07;;
2486;SDS011;1254;49.144;8.212;2023-06-04T05:50:27;4.23;;;2.53;;
2486;SDS011;1254;49.144;8.212;2023-06-04T05:52:56;4.87;;;3.23;;
2486;SDS011;1254;49.144;8.212;2023-06-04T05:55:24;2.73;;;2.63;;
2486;SDS011;1254;49.144;8.212;2023-06-04T05:57:54;7.37;;;2.70;;
2486;SDS011;1254;49.144;8.212;2023-06-04T06:00:23;2.90;;;2.70;;
2486;SDS011;1254;49.144;8.212;2023-06-04T06:02:52;4.73;;;3.70;;
2486;SDS011;1254;49.144;8.212;2023-06-04T06:05:34;2.90;;;2.70;;
2486;SDS011;1254;49.144;8.212;2023-06-04T06:08:02;6.33;;;2.70;;
2486;SDS011;1254;49.144;8.212;2023-06-04T06:10:31;6.73;;;3.53;;
2486;SDS011;1254;49.144;8.212;2023-06-04T06:12:59;2.90;;;2.70;;
2486;SDS011;1254;49.144;8.212;2023-06-04T06:15:28;3.27;;;2.80;;
2486;SDS011;1254;49.144;8.212;2023-06-04T06:17:57;4.97;;;2.93;;
2486;SDS011;1254;49.144;8.212;2023-06-04T06:20:25;3.17;;;2.97;;
2486;SDS011;1254;49.144;8.212;2023-06-04T06:22:56;3.13;;;2.70;;
2486;SDS011;1254;49.144;8.212;2023-06-04T06:25:25;4.13;;;2.90;;
2486;SDS011;1254;49.144;8.212;2023-06-04T06:27:59;2.80;;;2.70;;
2486;SDS011;1254;49.144;8.212;2023-06-04T06:30:28;4.13;;;2.80;;
2486;SDS011;1254;49.144;8.212;2023-06-04T06:32:56;3.43;;;2.60;;
2486;SDS011;1254;49.144;8.212;2023-06-04T06:35:24;4.17;;;3.00;;
2486;SDS011;1254;49.144;8.212;2023-06-04T06:37:53;3.57;;;2.60;;
2486;SDS011;1254;49.144;8.212;2023-06-04T06:40:22;3.50;;;3.30;;
2486;SDS011;1254;49.144;8.212;2023-06-04T06:42:50;2.80;;;2.70;;
2486;SDS011;1254;49.144;8.212;2023-06-04T06:45:19;4.90;;;3.20;;
2486;SDS011;1254;49.144;8.212;2023-06-04T06:47:47;2.80;;;2.60;;
2486;SDS011;1254;49.144;8.212;2023-06-04T06:50:16;6.33;;;3.00;;
2486;SDS011;1254;49.144;8.212;2023-06-04T06:52:44;4.27;;;3.00;;
2486;SDS011;1254;49.144;8.212;2023-06-04T06:55:12;5.67;;;3.37;;
2486;SDS011;1254;49.144;8.212;2023-06-04T06:57:42;3.77;;;3.37;;
2486;SDS011;1254;49.144;8.212;2023-06-04T07:00:10;3.17;;;2.93;;
2486;SDS011;1254;49.144;8.212;2023-06-04T07:02:39;7.00;;;3.10;;
2486;SDS011;1254;49.144;8.212;2023-06-04T07:05:07;3.33;;;3.03;;
2486;SDS011;1254;49.144;8.212;2023-06-04T07:07:36;4.17;;;2.90;;
2486;SDS011;1254;49.144;8.212;2023-06-04T07:10:05;4.63;;;3.33;;
2486;SDS011;1254;49.144;8.212;2023-06-04T07:12:33;3.73;;;3.43;;
2486;SDS011;1254;49.144;8.212;2023-06-04T07:15:03;3.30;;;2.80;;
2486;SDS011;1254;49.144;8.212;2023-06-04T07:17:32;3.70;;;3.20;;
2486;SDS011;1254;49.144;8.212;2023-06-04T07:20:01;3.30;;;3.10;;
2486;SDS011;1254;49.144;8.212;2023-06-04T07:22:32;3.20;;;3.00;;
2486;SDS011;1254;49.144;8.212;2023-06-04T07:25:01;3.20;;;3.00;;
2486;SDS011;1254;49.144;8.212;2023-06-04T07:27:30;3.73;;;3.10;;
2486;SDS011;1254;49.144;8.212;2023-06-04T07:29:59;2.97;;;2.80;;
2486;SDS011;1254;49.144;8.212;2023-06-04T07:32:28;3.20;;;2.90;;
2486;SDS011;1254;49.144;8.212;2023-06-04T07:34:57;4.80;;;2.93;;
2486;SDS011;1254;49.144;8.212;2023-06-04T07:37:25;4.97;;;3.93;;
2486;SDS011;1254;49.144;8.212;2023-06-04T07:39:53;3.30;;;3.00;;
2486;SDS011;1254;49.144;8.212;2023-06-04T07:42:22;4.13;;;2.80;;
2486;SDS011;1254;49.144;8.212;2023-06-04T07:44:50;8.53;;;3.10;;
2486;SDS011;1254;49.144;8.212;2023-06-04T07:47:18;3.80;;;3.03;;
2486;SDS011;1254;49.144;8.212;2023-06-04T07:49:48;3.50;;;3.30;;
2486;SDS011;1254;49.144;8.212;2023-06-04T07:52:16;3.40;;;3.10;;
2486;SDS011;1254;49.144;8.212;2023-06-04T07:54:44;3.23;;;3.03;;
2486;SDS011;1254;49.144;8.212;2023-06-04T07:57:13;4.10;;;3.70;;
2486;SDS011;1254;49.144;8.212;2023-06-04T07:59:41;3.87;;;3.10;;
2486;SDS011;1254;49.144;8.212;2023-06-04T08:02:09;3.33;;;3.13;;
2486;SDS011;1254;49.144;8.212;2023-06-04T08:04:38;3.60;;;3.40;;
2486;SDS011;1254;49.144;8.212;2023-06-04T08:07:08;6.20;;;3.60;;
2486;SDS011;1254;49.144;8.212;2023-06-04T08:09:37;3.10;;;2.90;;
2486;SDS011;1254;49.144;8.212;2023-06-04T08:12:05;4.53;;;3.30;;
2486;SDS011;1254;49.144;8.212;2023-06-04T08:14:33;4.90;;;3.00;;
2486;SDS011;1254;49.144;8.212;2023-06-04T08:17:01;3.20;;;3.00;;
2486;SDS011;1254;49.144;8.212;2023-06-04T08:19:43;3.13;;;2.93;;
2486;SDS011;1254;49.144;8.212;2023-06-04T08:22:32;3.33;;;3.13;;
2486;SDS011;1254;49.144;8.212;2023-06-04T08:25:12;3.33;;;3.13;;
2486;SDS011;1254;49.144;8.212;2023-06-04T08:28:01;3.90;;;3.53;;
2486;SDS011;1254;49.144;8.212;2023-06-04T08:30:49;3.57;;;3.30;;
2486;SDS011;1254;49.144;8.212;2023-06-04T08:33:36;2.90;;;2.60;;
2486;SDS011;1254;49.144;8.212;2023-06-04T08:36:09;3.37;;;3.07;;
2486;SDS011;1254;49.144;8.212;2023-06-04T08:38:38;3.83;;;3.37;;
2486;SDS011;1254;49.144;8.212;2023-06-04T08:41:09;3.63;;;3.33;;
2486;SDS011;1254;49.144;8.212;2023-06-04T08:43:41;4.70;;;3.30;;
2486;SDS011;1254;49.144;8.212;2023-06-04T08:46:10;3.10;;;2.90;;
2486;SDS011;1254;49.144;8.212;2023-06-04T08:48:39;3.00;;;2.80;;
2486;SDS011;1254;49.144;8.212;2023-06-04T08:51:08;3.90;;;3.30;;
2486;SDS011;1254;49.144;8.212;2023-06-04T08:53:36;4.27;;;3.67;;
2486;SDS011;1254;49.144;8.212;2023-06-04T08:56:06;4.07;;;3.77;;
2486;SDS011;1254;49.144;8.212;2023-06-04T08:58:35;4.00;;;3.80;;
2486;SDS011;1254;49.144;8.212;2023-06-04T09:01:04;3.60;;;3.27;;
2486;SDS011;1254;49.144;8.212;2023-06-04T09:03:32;3.53;;;3.23;;
2486;SDS011;1254;49.144;8.212;2023-06-04T09:06:01;7.30;;;4.40;;
2486;SDS011;1254;49.144;8.212;2023-06-04T09:08:31;3.93;;;3.60;;
2486;SDS011;1254;49.144;8.212;2023-06-04T09:10:59;5.03;;;4.03;;
2486;SDS011;1254;49.144;8.212;2023-06-04T09:13:30;3.80;;;3.60;;
2486;SDS011;1254;49.144;8.212;2023-06-04T09:15:59;4.10;;;3.70;;
2486;SDS011;1254;49.144;8.212;2023-06-04T09:18:27;3.67;;;3.00;;
2486;SDS011;1254;49.144;8.212;2023-06-04T09:21:02;7.03;;;3.70;;
2486;SDS011;1254;49.144;8.212;2023-06-04T09:23:31;7.07;;;3.97;;
2486;SDS011;1254;49.144;8.212;2023-06-04T09:26:06;3.37;;;3.10;;
2486;SDS011;1254;49.144;8.212;2023-06-04T09:28:36;5.90;;;3.77;;
2486;SDS011;1254;49.144;8.212;2023-06-04T09:31:10;4.13;;;3.93;;
2486;SDS011;1254;49.144;8.212;2023-06-04T09:33:41;4.10;;;3.70;;
2486;SDS011;1254;49.144;8.212;2023-06-04T09:36:10;3.97;;;3.57;;
2486;SDS011;1254;49.144;8.212;2023-06-04T09:38:38;3.60;;;3.40;;
2486;SDS011;1254;49.144;8.212;2023-06-04T09:41:13;6.07;;;4.07;;
2486;SDS011;1254;49.144;8.212;2023-06-04T09:43:43;4.17;;;3.53;;
2486;SDS011;1254;49.144;8.212;2023-06-04T09:46:12;4.13;;;3.83;;
2486;SDS011;1254;49.144;8.212;2023-06-04T09:48:40;5.30;;;3.60;;
2486;SDS011;1254;49.144;8.212;2023-06-04T09:51:09;3.90;;;3.70;;
2486;SDS011;1254;49.144;8.212;2023-06-04T09:53:38;3.80;;;3.60;;
2486;SDS011;1254;49.144;8.212;2023-06-04T09:56:07;3.93;;;3.63;;
2486;SDS011;1254;49.144;8.212;2023-06-04T09:58:37;3.60;;;3.43;;
2486;SDS011;1254;49.144;8.212;2023-06-04T10:01:08;4.10;;;3.80;;
2486;SDS011;1254;49.144;8.212;2023-06-04T10:03:37;5.73;;;3.70;;
2486;SDS011;1254;49.144;8.212;2023-06-04T10:06:07;6.80;;;6.13;;
2486;SDS011;1254;49.144;8.212;2023-06-04T10:08:37;5.37;;;3.87;;
2486;SDS011;1254;49.144;8.212;2023-06-04T10:11:07;3.63;;;3.43;;
2486;SDS011;1254;49.144;8.212;2023-06-04T10:13:38;4.43;;;4.03;;
2486;SDS011;1254;49.144;8.212;2023-06-04T10:16:09;4.30;;;3.90;;
2486;SDS011;1254;49.144;8.212;2023-06-04T10:18:39;8.87;;;3.90;;
2486;SDS011;1254;49.144;8.212;2023-06-04T10:21:07;4.33;;;4.03;;
2486;SDS011;1254;49.144;8.212;2023-06-04T10:23:36;3.87;;;3.53;;
2486;SDS011;1254;49.144;8.212;2023-06-04T10:26:04;4.00;;;3.70;;
2486;SDS011;1254;49.144;8.212;2023-06-04T10:28:32;8.53;;;4.13;;
2486;SDS011;1254;49.144;8.212;2023-06-04T10:31:01;4.47;;;4.17;;
2486;SDS011;1254;49.144;8.212;2023-06-04T10:33:31;3.93;;;3.30;;
2486;SDS011;1254;49.144;8.212;2023-06-04T10:35:59;4.17;;;3.70;;
2486;SDS011;1254;49.144;8.212;2023-06-04T10:38:44;3.90;;;3.70;;
2486;SDS011;1254;49.144;8.212;2023-06-04T10:41:13;4.63;;;4.23;;
2486;SDS011;1254;49.144;8.212;2023-06-04T10:43:42;4.03;;;3.73;;
2486;SDS011;1254;49.144;8.212;2023-06-04T10:46:13;4.83;;;3.50;;
2486;SDS011;1254;49.144;8.212;2023-06-04T10:48:47;3.73;;;3.53;;
2486;SDS011;1254;49.144;8.212;2023-06-04T10:51:15;5.30;;;4.10;;
2486;SDS011;1254;49.144;8.212;2023-06-04T10:53:43;6.13;;;4.80;;
2486;SDS011;1254;49.144;8.212;2023-06-04T10:56:12;4.73;;;4.10;;
2486;SDS011;1254;49.144;8.212;2023-06-04T10:58:40;5.50;;;4.17;;
2486;SDS011;1254;49.144;8.212;2023-06-04T11:01:08;3.77;;;3.57;;
2486;SDS011;1254;49.144;8.212;2023-06-04T11:03:37;4.53;;;3.83;;
2486;SDS011;1254;49.144;8.212;2023-06-04T11:06:15;4.60;;;4.10;;
2486;SDS011;1254;49.144;8.212;2023-06-04T11:08:44;4.47;;;4.17;;
2486;SDS011;1254;49.144;8.212;2023-06-04T11:11:12;4.60;;;4.27;;
2486;SDS011;1254;49.144;8.212;2023-06-04T11:13:41;4.20;;;4.00;;
2486;SDS011;1254;49.144;8.212;2023-06-04T11:16:15;4.07;;;3.80;;
2486;SDS011;1254;49.144;8.212;2023-06-04T11:18:53;5.33;;;3.90;;
2486;SDS011;1254;49.144;8.212;2023-06-04T11:21:23;10.80;;;4.07;;
2486;SDS011;1254;49.144;8.212;2023-06-04T11:23:54;8.03;;;4.60;;
2486;SDS011;1254;49.144;8.212;2023-06-04T11:26:29;4.13;;;3.90;;
2486;SDS011;1254;49.144;8.212;2023-06-04T11:28:57;5.00;;;4.00;;
2486;SDS011;1254;49.144;8.212;2023-06-04T11:31:26;5.13;;;4.73;;
2486;SDS011;1254;49.144;8.212;2023-06-04T11:33:54;4.27;;;3.97;;
2486;SDS011;1254;49.144;8.212;2023-06-04T11:36:27;7.60;;;4.13;;
2486;SDS011;1254;49.144;8.212;2023-06-04T11:38:57;4.10;;;3.87;;
2486;SDS011;1254;49.144;8.212;2023-06-04T11:41:26;4.33;;;4.13;;
2486;SDS011;1254;49.144;8.212;2023-06-04T11:43:55;7.60;;;4.30;;
2486;SDS011;1254;49.144;8.212;2023-06-04T11:46:23;4.50;;;4.10;;
2486;SDS011;1254;49.144;8.212;2023-06-04T11:48:52;4.23;;;4.03;;
2486;SDS011;1254;49.144;8.212;2023-06-04T11:51:20;9.23;;;4.17;;
2486;SDS011;1254;49.144;8.212;2023-06-04T11:53:50;4.70;;;4.20;;
2486;SDS011;1254;49.144;8.212;2023-06-04T11:56:18;4.30;;;4.10;;
2486;SDS011;1254;49.144;8.212;2023-06-04T11:58:47;4.27;;;4.07;;
2486;SDS011;1254;49.144;8.212;2023-06-04T12:01:15;4.33;;;3.93;;
2486;SDS011;1254;49.144;8.212;2023-06-04T12:03:44;4.70;;;4.40;;
2486;SDS011;1254;49.144;8.212;2023-06-04T12:06:13;4.23;;;4.03;;
2486;SDS011;1254;49.144;8.212;2023-06-04T12:08:46;4.60;;;4.30;;
2486;SDS011;1254;49.144;8.212;2023-06-04T12:11:28;9.83;;;5.17;;
2486;SDS011;1254;49.144;8.212;2023-06-04T12:14:00;4.60;;;4.17;;
2486;SDS011;1254;49.144;8.212;2023-06-04T12:16:31;5.10;;;4.67;;
2486;SDS011;1254;49.144;8.212;2023-06-04T12:19:06;4.50;;;4.20;;
2486;SDS011;1254;49.144;8.212;2023-06-04T12:21:35;5.83;;;4.10;;
2486;SDS011;1254;49.144;8.212;2023-06-04T12:24:07;4.40;;;4.20;;
2486;SDS011;1254;49.144;8.212;2023-06-04T12:26:37;4.80;;;4.40;;
2486;SDS011;1254;49.144;8.212;2023-06-04T12:29:07;4.50;;;4.20;;
2486;SDS011;1254;49.144;8.212;2023-06-04T12:31:36;4.93;;;4.40;;
2486;SDS011;1254;49.144;8.212;2023-06-04T12:34:04;5.67;;;4.43;;
2486;SDS011;1254;49.144;8.212;2023-06-04T12:36:32;5.13;;;4.53;;
2486;SDS011;1254;49.144;8.212;2023-06-04T12:39:04;4.83;;;4.43;;
2486;SDS011;1254;49.144;8.212;2023-06-04T12:41:33;4.70;;;4.40;;
2486;SDS011;1254;49.144;8.212;2023-06-04T12:44:03;4.60;;;4.30;;
2486;SDS011;1254;49.144;8.212;2023-06-04T12:46:31;4.87;;;4.40;;
2486;SDS011;1254;49.144;8.212;2023-06-04T12:48:59;4.50;;;4.17;;
2486;SDS011;1254;49.144;8.212;2023-06-04T12:51:27;4.33;;;4.13;;
2486;SDS011;1254;49.144;8.212;2023-06-04T12:53:56;4.57;;;4.30;;
2486;SDS011;1254;49.144;8.212;2023-06-04T12:56:24;4.50;;;4.20;;
2486;SDS011;1254;49.144;8.212;2023-06-04T12:58:52;4.50;;;4.30;;
2486;SDS011;1254;49.144;8.212;2023-06-04T13:01:22;4.73;;;4.00;;
2486;SDS011;1254;49.144;8.212;2023-06-04T13:03:50;4.83;;;4.43;;
2486;SDS011;1254;49.144;8.212;2023-06-04T13:06:18;7.50;;;4.23;;
2486;SDS011;1254;49.144;8.212;2023-06-04T13:08:46;5.17;;;4.60;;
2486;SDS011;1254;49.144;8.212;2023-06-04T13:11:15;4.10;;;3.80;;
2486;SDS011;1254;49.144;8.212;2023-06-04T13:13:43;5.40;;;4.23;;
2486;SDS011;1254;49.144;8.212;2023-06-04T13:16:11;7.00;;;4.00;;
2486;SDS011;1254;49.144;8.212;2023-06-04T13:18:41;5.10;;;4.80;;
2486;SDS011;1254;49.144;8.212;2023-06-04T13:21:09;4.73;;;4.00;;
2486;SDS011;1254;49.144;8.212;2023-06-04T13:23:37;6.17;;;4.77;;
2486;SDS011;1254;49.144;8.212;2023-06-04T13:26:05;4.13;;;3.80;;
2486;SDS011;1254;49.144;8.212;2023-06-04T13:28:34;4.83;;;4.40;;
2486;SDS011;1254;49.144;8.212;2023-06-04T13:31:02;4.50;;;4.30;;
2486;SDS011;1254;49.144;8.212;2023-06-04T13:33:30;4.73;;;4.33;;
2486;SDS011;1254;49.144;8.212;2023-06-04T13:36:01;4.33;;;3.93;;
2486;SDS011;1254;49.144;8.212;2023-06-04T13:38:30;4.50;;;4.30;;
2486;SDS011;1254;49.144;8.212;2023-06-04T13:40:58;4.67;;;4.27;;
2486;SDS011;1254;49.144;8.212;2023-06-04T13:43:26;4.47;;;4.27;;
2486;SDS011;1254;49.144;8.212;2023-06-04T13:45:54;4.60;;;4.30;;
2486;SDS011;1254;49.144;8.212;2023-06-04T13:48:23;4.90;;;4.70;;
2486;SDS011;1254;49.144;8.212;2023-06-04T13:50:51;6.00;;;4.30;;
2486;SDS011;1254;49.144;8.212;2023-06-04T13:53:20;4.47;;;4.07;;
2486;SDS011;1254;49.144;8.212;2023-06-04T13:55:50;4.60;;;4.40;;
2486;SDS011;1254;49.144;8.212;2023-06-04T13:58:24;6.33;;;4.17;;
2486;SDS011;1254;49.144;8.212;2023-06-04T14:00:52;4.53;;;4.13;;
2486;SDS011;1254;49.144;8.212;2023-06-04T14:03:21;6.00;;;4.30;;
2486;SDS011;1254;49.144;8.212;2023-06-04T14:05:49;6.23;;;4.10;;
2486;SDS011;1254;49.144;8.212;2023-06-04T14:08:17;4.97;;;4.40;;
2486;SDS011;1254;49.144;8.212;2023-06-04T14:10:46;6.93;;;4.50;;
2486;SDS011;1254;49.144;8.212;2023-06-04T14:13:17;5.17;;;4.83;;
2486;SDS011;1254;49.144;8.212;2023-06-04T14:15:46;4.50;;;4.20;;
2486;SDS011;1254;49.144;8.212;2023-06-04T14:18:14;5.03;;;4.63;;
2486;SDS011;1254;49.144;8.212;2023-06-04T14:20:42;4.57;;;4.37;;
2486;SDS011;1254;49.144;8.212;2023-06-04T14:23:10;4.90;;;4.57;;
2486;SDS011;1254;49.144;8.212;2023-06-04T14:25:39;4.70;;;4.40;;
2486;SDS011;1254;49.144;8.212;2023-06-04T14:28:08;6.33;;;4.17;;
2486;SDS011;1254;49.144;8.212;2023-06-04T14:30:36;4.80;;;4.50;;
2486;SDS011;1254;49.144;8.212;2023-06-04T14:33:05;5.53;;;5.00;;
2486;SDS011;1254;49.144;8.212;2023-06-04T14:35:33;4.70;;;4.20;;
2486;SDS011;1254;49.144;8.212;2023-06-04T14:38:01;4.70;;;4.37;;
2486;SDS011;1254;49.144;8.212;2023-06-04T14:40:29;4.50;;;4.10;;
2486;SDS011;1254;49.144;8.212;2023-06-04T14:43:01;5.30;;;4.80;;
2486;SDS011;1254;49.144;8.212;2023-06-04T14:45:31;6.43;;;4.50;;
2486;SDS011;1254;49.144;8.212;2023-06-04T14:47:59;4.93;;;4.53;;
2486;SDS011;1254;49.144;8.212;2023-06-04T14:50:27;4.73;;;4.37;;
2486;SDS011;1254;49.144;8.212;2023-06-04T14:52:55;6.10;;;4.27;;
2486;SDS011;1254;49.144;8.212;2023-06-04T14:55:23;4.43;;;4.23;;
2486;SDS011;1254;49.144;8.212;2023-06-04T14:57:52;5.17;;;4.40;;
2486;SDS011;1254;49.144;8.212;2023-06-04T15:00:20;4.87;;;4.47;;
2486;SDS011;1254;49.144;8.212;2023-06-04T15:02:49;5.00;;;4.13;;
2486;SDS011;1254;49.144;8.212;2023-06-04T15:05:18;4.40;;;4.10;;
2486;SDS011;1254;49.144;8.212;2023-06-04T15:07:46;4.13;;;3.90;;
2486;SDS011;1254;49.144;8.212;2023-06-04T15:10:14;4.47;;;4.07;;
2486;SDS011;1254;49.144;8.212;2023-06-04T15:12:42;4.60;;;4.40;;
2486;SDS011;1254;49.144;8.212;2023-06-04T15:15:10;5.50;;;4.60;;
2486;SDS011;1254;49.144;8.212;2023-06-04T15:17:39;4.30;;;4.10;;
2486;SDS011;1254;49.144;8.212;2023-06-04T15:20:08;4.43;;;4.23;;
2486;SDS011;1254;49.144;8.212;2023-06-04T15:22:37;6.40;;;4.50;;
2486;SDS011;1254;49.144;8.212;2023-06-04T15:25:05;4.37;;;3.97;;
2486;SDS011;1254;49.144;8.212;2023-06-04T15:27:33;4.33;;;4.10;;
2486;SDS011;1254;49.144;8.212;2023-06-04T15:30:02;4.90;;;4.50;;